Data for 08/22/2005

Time Sea-Level Adjusted Pressure Absolute Pressure Temperature Relative Humidity Dew Point   
(mb) (inHg) (mb) (inHg) (C) (F) (%) (C) (F)
00:05 1019 30.09 849 25.07 19.8 67.6 31 2.5 36.4
00:10 1019 30.09 849 25.07 19.7 67.5 31 2.3 36.2
00:15 1019 30.09 849 25.07 19.9 67.8 31 2.4 36.3
00:20 1019 30.09 849 25.07 20 67.9 33 3.4 38.1
00:25 1019 30.09 849 25.07 20 68.1 30 2 35.7
00:30 1019 30.09 849 25.07 20.1 68.2 30 1.9 35.5
00:35 1019 30.09 849 25.07 20.4 68.7 29 2.1 35.8
00:40 1019 30.09 849 25.07 20.2 68.3 31 2.8 37
00:45 1019 30.09 849 25.07 20 67.9 31 2.4 36.3
00:50 1019 30.09 848 25.04 20.1 68.2 30 2.2 36
00:55 1019 30.09 848 25.04 19.9 67.8 31 2.3 36.1
01:00 1019 30.09 848 25.04 19.6 67.3 33 3.1 37.6
01:05 1019 30.09 848 25.04 19.8 67.7 30 1.9 35.4
01:10 1019 30.09 848 25.04 20.1 68.2 30 2.2 35.9
01:15 1019 30.09 848 25.04 19.6 67.2 32 2.8 37
01:20 1019 30.09 848 25.04 20.1 68.2 31 2.5 36.5
01:25 1019 30.09 848 25.04 20.5 69 29 2.2 36
01:30 1019 30.09 848 25.04 19.9 67.8 31 2.5 36.4
01:35 1019 30.09 848 25.04 19.5 67.1 32 2.4 36.4
01:40 1019 30.09 848 25.04 19.4 66.9 34 3.1 37.7
01:45 1019 30.09 848 25.04 19.6 67.2 30 1.8 35.2
01:50 1019 30.09 848 25.04 20.3 68.5 29 1.9 35.4
01:55 1019 30.09 848 25.04 19.7 67.5 32 2.7 36.8
02:00 1019 30.09 848 25.04 19.9 67.8 32 2.8 37
02:05 1019 30.09 848 25.04 19.4 66.9 32 2.6 36.7
02:10 1019 30.09 848 25.04 19.2 66.5 33 2.7 36.9
02:15 1019 30.09 848 25.04 19 66.2 33 2.7 36.8
02:20 1019 30.09 848 25.04 19.3 66.7 37 4.3 39.8
02:25 1019 30.09 848 25.04 18.8 65.9 35 3.1 37.6
02:30 1019 30.09 848 25.04 18.2 64.8 35 2.6 36.7
02:35 1019 30.09 848 25.04 18.6 65.5 33 2.3 36.1
02:40 1019 30.09 848 25.04 18.9 66 34 2.6 36.7
02:45 1019 30.09 848 25.04 19.4 67 32 2.3 36.2
02:50 1019 30.09 848 25.04 19.3 66.7 32 2.3 36.1
02:55 1019 30.09 848 25.04 19.4 66.9 32 2.6 36.7
03:00 1019 30.09 848 25.04 19 66.1 34 2.7 36.9
03:05 1019 30.09 848 25.04 18.8 65.8 35 3.1 37.6
03:10 1019 30.09 848 25.04 18.3 64.9 35 2.9 37.2
03:15 1019 30.09 848 25.04 18.3 64.9 35 2.6 36.7
03:20 1019 30.09 848 25.04 18.1 64.5 36 2.7 36.8
03:25 1019 30.09 848 25.04 17.9 64.1 36 2.5 36.5
03:30 1019 30.09 848 25.04 17.9 64.2 36 2.9 37.2
03:35 1019 30.09 848 25.04 17.9 64.1 37 2.9 37.3
03:40 1019 30.09 848 25.04 18 64.4 35 2.4 36.2
03:45 1019 30.09 848 25.04 18.2 64.7 36 3.1 37.5
03:50 1019 30.09 848 25.04 18 64.5 37 3.1 37.5
03:55 1019 30.09 848 25.04 18.1 64.5 36 2.8 37.1
04:00 1019 30.09 848 25.04 18.1 64.7 36 2.9 37.2
04:05 1019 30.09 848 25.04 18.1 64.5 37 3.2 37.8
04:10 1019 30.09 848 25.04 17.8 64 35 2.4 36.4
04:15 1019 30.09 848 25.04 18 64.5 35 2.3 36.2
04:20 1019 30.09 848 25.04 18.3 64.9 35 2.6 36.7
04:25 1019 30.09 848 25.04 18.2 64.7 37 3.3 38
04:30 1018 30.06 848 25.04 18.7 65.6 33 2 35.7
04:35 1019 30.09 848 25.04 19.6 67.2 32 2.6 36.7
04:40 1019 30.09 848 25.04 19.2 66.6 35 3.4 38.1
04:45 1019 30.09 848 25.04 19 66.2 34 2.8 37.1
04:50 1019 30.09 848 25.04 18.7 65.6 35 2.8 37.1
04:55 1019 30.09 848 25.04 18.2 64.8 36 3.2 37.7
05:00 1019 30.09 848 25.04 17.7 63.8 38 3.2 37.8
05:05 1019 30.09 848 25.04 17.3 63.2 39 3.4 38.1
05:10 1019 30.09 848 25.04 17.4 63.2 39 3.4 38.1
05:15 1019 30.09 848 25.04 17.7 63.9 35 2.3 36.1
05:20 1019 30.09 848 25.04 18 64.3 36 2.6 36.7
05:25 1019 30.09 848 25.04 17.9 64.2 37 3 37.4
05:30 1019 30.09 848 25.04 17.8 64.1 36 2.9 37.2
05:35 1019 30.09 848 25.04 18 64.3 35 2.5 36.6
05:40 1019 30.09 848 25.04 18 64.5 37 3.4 38
05:45 1019 30.09 848 25.04 17.7 63.9 40 4 39.2
05:50 1019 30.09 848 25.04 17.8 64 38 3.3 37.9
05:55 1019 30.09 848 25.04 17.7 63.9 38 3.2 37.8
06:00 1019 30.09 848 25.04 17.7 63.9 38 3.5 38.3
06:05 1019 30.09 848 25.04 17.6 63.7 39 3.6 38.4
06:10 1019 30.09 848 25.04 17.4 63.4 39 3.6 38.5
06:15 1019 30.09 848 25.04 17.2 63 41 4.1 39.3
06:20 1019 30.09 848 25.04 16.8 62.2 42 3.8 38.8
06:25 1019 30.09 848 25.04 17 62.6 40 3.3 38
06:30 1019 30.09 848 25.04 17.1 62.9 40 3.5 38.3
06:35 1019 30.09 848 25.04 17.2 63 39 3.4 38.1
06:40 1019 30.09 848 25.04 17.1 62.8 41 3.9 39
06:45 1019 30.09 848 25.04 16.8 62.2 45 5 41
06:50 1019 30.09 848 25.04 16.8 62.3 43 4.3 39.8
06:55 1019 30.09 848 25.04 16.7 62 43 4.2 39.5
07:00 1019 30.09 848 25.04 16.6 61.9 51 6.5 43.7
07:05 1019 30.09 848 25.04 16.1 61 49 5.6 42.1
07:10 1019 30.09 848 25.04 15.4 59.7 49 4.8 40.7
07:15 1019 30.09 849 25.07 15.8 60.4 52 6.1 43
07:20 1019 30.09 849 25.07 16.1 60.9 49 5.3 41.6
07:25 1019 30.09 849 25.07 15.9 60.7 49 5.4 41.8
07:30 1019 30.09 849 25.07 16 60.8 49 5.5 41.9
07:35 1019 30.09 849 25.07 15.9 60.5 51 5.8 42.5
07:40 1019 30.09 849 25.07 16 60.7 51 5.9 42.6
07:45 1019 30.09 849 25.07 16.3 61.4 49 5.8 42.4
07:50 1019 30.09 849 25.07 16.2 61.2 49 5.7 42.3
07:55 1019 30.09 849 25.07 16.4 61.5 52 6.6 43.9
08:00 1019 30.09 849 25.07 16.6 61.9 47 5.3 41.5
08:05 1019 30.09 848 25.04 17.1 62.8 49 6.3 43.4
08:10 1019 30.09 848 25.04 17.6 63.6 45 5.5 41.9
08:15 1019 30.09 849 25.07 18.1 64.6 44 5.9 42.6
08:20 1019 30.09 849 25.07 18.9 66 40 5.2 41.3
08:25 1019 30.09 849 25.07 19.5 67.1 41 6.1 43
08:30 1020 30.12 849 25.07 20 67.9 38 5.3 41.5
08:35 1020 30.12 849 25.07 20.3 68.6 35 4.6 40.3
08:40 1020 30.12 849 25.07 21 69.7 33 4.2 39.6
08:45 1020 30.12 849 25.07 21.6 70.9 33 4.9 40.8
08:50 1020 30.12 849 25.07 22.1 71.8 34 5.7 42.3
08:55 1020 30.12 849 25.07 22.3 72.1 34 6 42.9
09:00 1020 30.12 849 25.07 21.9 71.5 35 5.9 42.6
09:05 1020 30.12 849 25.07 22.5 72.5 34 5.9 42.6
09:10 1020 30.12 849 25.07 23.3 74 31 5.3 41.6
09:15 1020 30.12 849 25.07 23.4 74.1 32 5.8 42.4
09:20 1020 30.12 849 25.07 23.6 74.4 30 5.2 41.4
09:25 1020 30.12 849 25.07 24 75.3 30 5.4 41.8
09:30 1020 30.12 849 25.07 23.9 75.1 30 5.3 41.5
09:35 1020 30.12 849 25.07 23.8 74.8 29 5.1 41.2
09:40 1020 30.12 849 25.07 23.9 75 31 5.8 42.4
09:45 1020 30.12 849 25.07 23.6 74.5 33 6.5 43.7
09:50 1020 30.12 849 25.07 24 75.2 30 5.5 41.8
09:55 1020 30.12 849 25.07 24.4 75.9 29 5.3 41.6
10:00 1020 30.12 849 25.07 24.1 75.3 30 5.8 42.4
10:05 1020 30.12 849 25.07 23.7 74.7 30 5.4 41.7
10:10 1020 30.12 849 25.07 23.4 74.1 30 5.1 41.2
10:15 1020 30.12 849 25.07 23.6 74.5 30 5.3 41.5
10:20 1020 30.12 849 25.07 23.4 74.2 31 5.6 42.2
10:25 1020 30.12 849 25.07 22.9 73.2 32 5.6 42.1
10:30 1020 30.12 849 25.07 23.2 73.8 30 4.9 40.8
10:35 1020 30.12 849 25.07 23.8 74.8 29 5.1 41.1
10:40 1020 30.12 849 25.07 24.8 76.6 27 4.7 40.5
10:45 1020 30.12 849 25.07 25.4 77.7 26 5 41
10:50 1020 30.12 849 25.07 26 78.8 25 4.9 40.9
10:55 1020 30.12 849 25.07 25.6 78.1 25 4.4 39.9
11:00 1020 30.12 849 25.07 25.8 78.4 25 4.5 40.1
11:05 1020 30.12 849 25.07 26.4 79.6 22 3.4 38.2
11:10 1019 30.09 849 25.07 26.7 80 21 2.7 36.8
11:15 1019 30.09 849 25.07 26.7 80 21 3 37.3
11:20 1019 30.09 848 25.04 26.6 79.9 21 3 37.4
11:25 1019 30.09 848 25.04 26.4 79.6 22 3.4 38.1
11:30 1019 30.09 848 25.04 26.3 79.4 22 3.4 38.1
11:35 1019 30.09 848 25.04 26.2 79.2 24 4.2 39.6
11:40 1019 30.09 848 25.04 26.4 79.4 24 4.3 39.8
11:45 1019 30.09 848 25.04 26.2 79.2 23 3.9 39.1
11:50 1019 30.09 848 25.04 26.2 79.2 22 3.3 37.9
11:55 1019 30.09 848 25.04 25.8 78.5 24 3.8 38.8
12:00 1019 30.09 848 25.04 27.4 81.3 22 3.9 39
12:05 1019 30.09 848 25.04 28.7 83.6 19 3.4 38.1
12:10 1019 30.09 848 25.04 28.1 82.7 19 3 37.4
12:15 1019 30.09 848 25.04 28.2 82.7 20 3.5 38.2
12:20 1019 30.09 848 25.04 28 82.5 21 3.9 39.1
12:25 1018 30.06 848 25.04 28 82.5 20 3.4 38
12:30 1018 30.06 848 25.04 28.8 83.8 21 4.8 40.6
12:35 1018 30.06 847 25.01 29.2 84.5 21 4.8 40.7
12:40 1018 30.06 847 25.01 28.9 84.1 21 4.5 40.1
12:45 1018 30.06 847 25.01 28.7 83.7 20 3.7 38.7
12:50 1018 30.06 847 25.01 30.1 86.2 19 4.2 39.6
12:55 1018 30.06 847 25.01 30.5 86.8 20 5.6 42
13:00 1018 30.06 847 25.01 29.5 85.1 19 3.8 38.9
13:05 1018 30.06 847 25.01 29.5 85 20 4.4 39.8
13:10 1018 30.06 847 25.01 29.8 85.6 18 3.5 38.2
13:15 1018 30.06 847 25.01 29.8 85.6 18 3.3 37.9
13:20 1018 30.06 847 25.01 30.1 86.2 19 4.1 39.5
13:25 1018 30.06 847 25.01 29.9 85.8 19 4 39.3
13:30 1018 30.06 847 25.01 30.3 86.6 19 4.6 40.2
13:35 1018 30.06 847 25.01 30.8 87.4 19 4.7 40.5
13:40 1018 30.06 847 25.01 31 87.8 20 5.5 41.9
13:45 1018 30.06 847 25.01 29.9 85.9 22 6.1 43.1
13:50 1018 30.06 847 25.01 29.2 84.5 24 7 44.7
13:55 1018 30.06 847 25.01 28.7 83.6 24 6.6 43.9
14:00 1018 30.06 847 25.01 28.6 83.4 24 6.3 43.3
14:05 1018 30.06 847 25.01 28.4 83.1 24 6.2 43.2
14:10 1018 30.06 847 25.01 28.3 83 24 5.9 42.7
14:15 1018 30.06 847 25.01 28.4 83.1 23 5.9 42.6
14:20 1017 30.03 847 25.01 28.5 83.3 25 6.9 44.4
14:25 1017 30.03 847 25.01 28.6 83.4 24 6.3 43.3
14:30 1017 30.03 847 25.01 29.2 84.5 22 5.8 42.4
14:35 1017 30.03 847 25.01 30.2 86.4 21 5.7 42.3
14:40 1017 30.03 847 25.01 31 87.7 21 6.1 43
14:45 1017 30.03 846 24.98 29.9 85.9 21 5.6 42.1
14:50 1017 30.03 846 24.98 29.8 85.6 20 4.8 40.7
14:55 1017 30.03 846 24.98 29.1 84.4 22 5.7 42.2
15:00 1017 30.03 846 24.98 29.1 84.4 22 5.8 42.4
15:05 1017 30.03 846 24.98 29.2 84.5 24 7.2 44.9
15:10 1017 30.03 846 24.98 28.7 83.7 22 5.3 41.5
15:15 1017 30.03 846 24.98 28.2 82.7 22 4.6 40.3
15:20 1017 30.03 846 24.98 28.1 82.5 21 4 39.2
15:25 1017 30.03 846 24.98 27.9 82.2 22 4.7 40.5
15:30 1017 30.03 846 24.98 27.8 82.1 22 4.3 39.7
15:35 1017 30.03 846 24.98 27.9 82.2 22 4.5 40.1
15:40 1017 30.03 846 24.98 27.8 82 23 5.2 41.3
15:45 1016 30 846 24.98 27.5 81.6 23 4.6 40.2
15:50 1016 30 846 24.98 27.5 81.5 23 5 40.9
15:55 1016 30 846 24.98 27.7 81.9 22 4.3 39.8
16:00 1016 30 846 24.98 27.8 82 22 4.4 39.9
16:05 1016 30 845 24.95 27.9 82.3 21 3.7 38.7
16:10 1016 30 845 24.95 28 82.4 21 4 39.1
16:15 1016 30 845 24.95 28 82.4 20 3.6 38.4
16:20 1016 30 845 24.95 27.8 82 21 3.5 38.3
16:25 1016 30 845 24.95 27.9 82.3 21 3.7 38.7
16:30 1016 30 845 24.95 28.4 83 20 3.4 38
16:35 1016 30 845 24.95 28.3 83 20 3.3 38
16:40 1016 30 845 24.95 28 82.4 20 3.5 38.3
16:45 1016 30 845 24.95 27.7 81.8 20 2.9 37.3
16:50 1016 30 845 24.95 27.4 81.3 20 3 37.4
16:55 1016 30 845 24.95 27.3 81.2 20 2.5 36.5
17:00 1016 30 845 24.95 27.2 81 21 3.4 38.2
17:05 1016 30 845 24.95 26.9 80.5 23 4.2 39.5
17:10 1016 30 845 24.95 26.8 80.2 23 4.1 39.4
17:15 1016 30 845 24.95 26.7 80.1 23 4.1 39.4
17:20 1016 30 845 24.95 26.6 79.9 23 4.2 39.6
17:25 1016 30 845 24.95 26.5 79.6 24 4.6 40.3
17:30 1016 30 845 24.95 26.3 79.4 24 4.3 39.8
17:35 1016 30 845 24.95 26.1 79.1 24 4.5 40.1
17:40 1016 30 845 24.95 26 78.8 25 4.6 40.2
17:45 1016 30 845 24.95 25.7 78.2 26 4.8 40.7
17:50 1016 30 845 24.95 25.4 77.7 27 5.4 41.7
17:55 1016 30 845 24.95 25.3 77.5 25 4 39.3
18:00 1016 30 846 24.98 25.3 77.5 26 4.6 40.2
18:05 1016 30 846 24.98 25 77 27 5.2 41.3
18:10 1017 30.03 846 24.98 24.6 76.4 27 4.8 40.6
18:15 1017 30.03 846 24.98 24.3 75.8 28 5 40.9
18:20 1017 30.03 846 24.98 24 75.2 29 5 41
18:25 1017 30.03 846 24.98 23.8 74.9 29 4.7 40.5
18:30 1017 30.03 846 24.98 23.8 74.8 29 4.8 40.6
18:35 1017 30.03 846 24.98 23.7 74.6 30 5.1 41.2
18:40 1017 30.03 846 24.98 23.7 74.6 29 4.7 40.5
18:45 1017 30.03 846 24.98 23.8 74.9 27 3.9 38.9
18:50 1017 30.03 846 24.98 23.9 74.9 27 4.1 39.4
18:55 1017 30.03 846 24.98 23.8 74.9 27 4 39.1
19:00 1017 30.03 846 24.98 23.8 74.9 27 3.7 38.7
19:05 1016 30 846 24.98 23.9 75 27 4.1 39.4
19:10 1017 30.03 846 24.98 23.9 75 26 3.6 38.5
19:15 1017 30.03 846 24.98 23.8 74.8 27 3.8 38.9
19:20 1016 30 846 24.98 23.6 74.5 27 3.7 38.7
19:25 1017 30.03 846 24.98 23.5 74.3 27 3.7 38.7
19:30 1017 30.03 846 24.98 23.4 74 28 3.8 38.9
19:35 1017 30.03 846 24.98 23.4 74.2 27 3.6 38.4
19:40 1017 30.03 846 24.98 23.5 74.4 27 3.4 38.2
19:45 1017 30.03 846 24.98 23.6 74.5 26 3.4 38.1
19:50 1017 30.03 846 24.98 23.5 74.4 27 3.7 38.7
19:55 1017 30.03 846 24.98 23.3 73.9 27 3.7 38.7
20:00 1017 30.03 846 24.98 23.2 73.8 29 4.2 39.6
20:05 1017 30.03 846 24.98 23 73.5 29 4.3 39.8
20:10 1017 30.03 846 24.98 22.8 73 31 4.8 40.7
20:15 1017 30.03 846 24.98 22.6 72.7 31 4.7 40.4
20:20 1017 30.03 846 24.98 22.4 72.3 31 4.7 40.4
20:25 1017 30.03 846 24.98 22.4 72.3 31 4.7 40.4
20:30 1017 30.03 846 24.98 22.6 72.6 31 4.7 40.5
20:35 1017 30.03 846 24.98 22.6 72.6 30 4.4 39.9
20:40 1017 30.03 846 24.98 22.6 72.6 31 4.6 40.3
20:45 1017 30.03 846 24.98 22.6 72.7 31 5 41.1
20:50 1017 30.03 846 24.98 22.3 72.1 32 5 41
20:55 1017 30.03 846 24.98 22.1 71.7 32 5 41
21:00 1017 30.03 847 25.01 22 71.6 32 4.8 40.7
21:05 1017 30.03 847 25.01 22.2 71.9 32 4.9 40.8
21:10 1017 30.03 847 25.01 22.1 71.7 33 5.3 41.5
21:15 1018 30.06 847 25.01 21.8 71.2 34 5.3 41.6
21:20 1018 30.06 847 25.01 21.6 70.8 34 5.1 41.2
21:25 1018 30.06 847 25.01 21.4 70.5 34 5 41
21:30 1018 30.06 847 25.01 21.3 70.4 34 5.1 41.2
21:35 1018 30.06 847 25.01 21.4 70.5 35 5.4 41.7
21:40 1018 30.06 847 25.01 21.1 70.1 36 5.5 41.9
21:45 1018 30.06 847 25.01 20.9 69.6 38 6.1 42.9
21:50 1018 30.06 847 25.01 20.7 69.3 38 6.2 43.2
21:55 1018 30.06 847 25.01 20.8 69.4 37 5.7 42.3
22:00 1018 30.06 847 25.01 21.1 70 35 5.2 41.3
22:05 1018 30.06 847 25.01 21.2 70.2 36 5.9 42.6
22:10 1018 30.06 847 25.01 21 69.7 37 6 42.8
22:15 1018 30.06 847 25.01 20.8 69.4 38 6.2 43.2
22:20 1018 30.06 847 25.01 20.6 69 40 6.5 43.7
22:25 1018 30.06 847 25.01 20.5 68.8 41 6.8 44.3
22:30 1018 30.06 847 25.01 20.4 68.7 41 7 44.5
22:35 1018 30.06 847 25.01 20.3 68.5 43 7.3 45.1
22:40 1018 30.06 847 25.01 20.2 68.4 43 7.5 45.5
22:45 1018 30.06 847 25.01 20.1 68.2 44 7.5 45.5
22:50 1018 30.06 847 25.01 20.1 68.3 44 7.7 45.8
22:55 1018 30.06 847 25.01 20.1 68.1 44 7.6 45.7
23:00 1018 30.06 847 25.01 20.1 68.1 44 7.7 45.8
23:05 1018 30.06 847 25.01 20 68 45 7.8 46
23:10 1018 30.06 847 25.01 19.9 67.8 46 8 46.4
23:15 1018 30.06 847 25.01 19.6 67.3 46 8 46.4
23:20 1018 30.06 847 25.01 19.5 67 47 8.2 46.7
23:25 1018 30.06 847 25.01 19.3 66.8 48 8.3 46.9
23:30 1018 30.06 847 25.01 19.1 66.4 48 8 46.4
23:35 1018 30.06 847 25.01 19.1 66.4 48 8 46.5
23:40 1018 30.06 847 25.01 19.1 66.4 49 8.3 46.9
23:45 1018 30.06 847 25.01 19 66.3 49 8.2 46.8
23:50 1018 30.06 847 25.01 19.1 66.4 49 8.2 46.8
23:55 1018 30.06 847 25.01 19.1 66.3 49 8.4 47.1
24:00 1018 30.06 847 25.01 19 66.1 51 8.6 47.5